Hilger, Montana
Current Conditions -  °F | °C
As of 6:54 AM on Sunday 25 Jan 2015 (Local Time) from KLWT Reporting Station
Clear Clear  
Wind Chill: 31°   Ceiling: Unl
Heat Index: 40°   Visibility: 10mi
Dew Point: 33°   Wind: 16mph
Humidity: 77%   Direction: 220°SW
Pressure: 29.97"   Gusts: NA
Location:  47.25°N, 109.36°W
Report Text: KLWT 251354Z AUTO 22014KT 10SM CLR 04/01 A2997 RMK AO2 SLP164 T00440006
Loading
Personal Weather Stations






























Interactive Weather Map New forecast layout! Learn more

10-Day Weather Forecast

Advertisements
Track Severe Weather on mobile